Wrightstown, Wisconsin
Current Conditions -  °F | °C
As of 12:45 AM on Thursday 27 Nov 2014 (Local Time) from KGRB Reporting Station
Light Snow Light Snow  
Wind Chill: 15°   Ceiling: 2000
Heat Index: 24°   Visibility: 2.5mi
Dew Point: 21°   Wind: 8mph
Humidity: 88%   Direction: 310°NW
Pressure: 30.2"   Gusts: NA
Location:  44.33°N, 88.16°W
Report Text: KGRB 270645Z AUTO 31007KT 2 1/2SM -SN BR OVC020 M04/M06 A3020 RMK AO2 P0000 T10441061
Loading
Personal Weather Stations






























Interactive Weather Map New forecast layout! Learn more

10-Day Weather Forecast

Advertisements
Track Severe Weather on mobile